Big Creek, West Virginia
Current Conditions -  °F | °C
As of 2:54 PM on Tuesday 25 Nov 2014 (Local Time) from KCRW Reporting Station
Few Clouds Few Clouds  
Wind Chill: 55°   Ceiling: Unl
Heat Index: 55°   Visibility: 10mi
Dew Point: 27°   Wind: 6mph
Humidity: 34%   Direction: NA
Pressure: 30.05"   Gusts: NA
Location:  38°N, 82.04°W
Report Text: KCRW 251954Z VRB05KT 10SM FEW050 FEW300 13/M03 A3005 RMK AO2 SLP176 T01281028
Loading
Personal Weather Stations






























Interactive Weather Map New forecast layout! Learn more

10-Day Weather Forecast

Advertisements
Track Severe Weather on mobile